createdAt,value
2018-12-02T00:00:24.889Z,5.80
2018-12-02T00:05:28.862Z,4.47
2018-12-02T00:10:32.636Z,3.27
2018-12-02T00:15:38.595Z,6.53
2018-12-02T00:20:42.416Z,4.87
2018-12-02T00:25:46.039Z,7.30
2018-12-02T00:30:49.588Z,4.40
2018-12-02T00:35:53.301Z,5.47
2018-12-02T00:40:56.812Z,5.65
2018-12-02T00:46:00.321Z,6.63
2018-12-02T00:51:03.823Z,7.10
2018-12-02T00:56:06.177Z,5.63
2018-12-02T01:01:10.026Z,9.15
2018-12-02T01:06:14.133Z,5.87
2018-12-02T01:11:17.718Z,8.53
2018-12-02T01:16:21.572Z,8.30
2018-12-02T01:21:25.321Z,4.77
2018-12-02T01:26:28.815Z,5.83
2018-12-02T01:31:32.283Z,4.33
2018-12-02T01:36:35.848Z,5.57
2018-12-02T01:41:40.468Z,7.40
2018-12-02T01:46:44.280Z,4.80
2018-12-02T01:51:47.968Z,8.37
2018-12-02T01:56:51.651Z,5.07
2018-12-02T02:01:55.332Z,5.27
2018-12-02T02:06:59.240Z,5.80
2018-12-02T02:12:03.147Z,5.47
2018-12-02T02:17:07.030Z,6.53
2018-12-02T02:22:10.503Z,5.43
2018-12-02T02:27:14.108Z,4.77
2018-12-02T02:32:17.681Z,7.03
2018-12-02T02:37:21.307Z,4.40
2018-12-02T02:42:25.072Z,6.17
2018-12-02T02:47:29.199Z,5.90
2018-12-02T02:52:33.860Z,5.43
2018-12-02T02:57:37.335Z,5.03
2018-12-02T03:02:41.150Z,8.40
2018-12-02T03:07:44.674Z,5.00
2018-12-02T03:12:50.573Z,7.03
2018-12-02T03:17:54.265Z,4.23
2018-12-02T03:22:57.964Z,2.70
2018-12-02T03:28:01.565Z,2.27
2018-12-02T03:33:05.401Z,2.53
2018-12-02T03:38:08.928Z,4.53
2018-12-02T03:43:12.412Z,4.60
2018-12-02T03:48:17.380Z,5.93
2018-12-02T03:53:21.023Z,4.93
2018-12-02T03:58:24.783Z,5.60
2018-12-02T04:03:28.242Z,6.17
2018-12-02T04:08:31.705Z,4.97
2018-12-02T04:13:35.193Z,2.70
2018-12-02T04:18:38.788Z,2.63
2018-12-02T04:23:42.282Z,3.07
2018-12-02T04:28:45.713Z,3.47
2018-12-02T04:33:49.168Z,2.33
2018-12-02T04:38:52.761Z,1.73
2018-12-02T04:43:56.477Z,2.73
2018-12-02T04:49:00.142Z,1.10
2018-12-02T04:54:03.903Z,1.67
2018-12-02T04:59:07.506Z,1.27
2018-12-02T05:04:11.235Z,4.97
2018-12-02T05:09:14.705Z,3.27
2018-12-02T05:14:18.156Z,1.83
2018-12-02T05:19:21.626Z,3.20
2018-12-02T05:24:25.142Z,1.67
2018-12-02T05:29:28.601Z,1.30
2018-12-02T05:34:32.059Z,1.67
2018-12-02T05:39:35.487Z,1.27
2018-12-02T05:44:39.189Z,0.80
2018-12-02T05:49:43.301Z,0.90
2018-12-02T05:54:47.485Z,2.00
2018-12-02T05:59:51.263Z,4.58
2018-12-02T06:04:54.812Z,2.70
2018-12-02T06:09:58.491Z,1.40
2018-12-02T06:15:02.461Z,1.23
2018-12-02T06:20:11.075Z,1.70
2018-12-02T06:25:14.637Z,4.83
2018-12-02T06:30:20.390Z,1.50
2018-12-02T06:35:24.397Z,3.70
2018-12-02T06:40:28.620Z,1.60
2018-12-02T06:45:32.186Z,3.93
2018-12-02T06:50:35.629Z,2.13
2018-12-02T06:55:44.372Z,1.60
2018-12-02T07:00:52.472Z,1.07
2018-12-02T07:05:56.046Z,2.93
2018-12-02T07:10:59.519Z,1.93
2018-12-02T07:16:03.028Z,1.03
2018-12-02T07:21:09.369Z,2.53
2018-12-02T07:26:13.946Z,1.02
2018-12-02T07:31:17.489Z,1.93
2018-12-02T07:36:20.990Z,7.20
2018-12-02T07:41:25.303Z,0.70
2018-12-02T07:46:29.151Z,3.77
2018-12-02T07:51:33.624Z,3.40
2018-12-02T07:56:37.228Z,6.07
2018-12-02T08:01:40.696Z,2.53
2018-12-02T08:06:44.525Z,1.30
2018-12-02T08:11:47.976Z,1.70
2018-12-02T08:16:51.580Z,1.17
2018-12-02T08:21:55.029Z,1.62
2018-12-02T08:26:58.523Z,1.70
2018-12-02T08:32:02.184Z,4.70
2018-12-02T08:37:06.563Z,6.40
2018-12-02T08:42:10.272Z,2.80
2018-12-02T08:47:15.130Z,3.97
2018-12-02T08:52:18.745Z,2.03
2018-12-02T08:57:22.308Z,1.00
2018-12-02T09:02:25.861Z,0.70
2018-12-02T09:07:29.690Z,1.00
2018-12-02T09:12:33.789Z,0.93
2018-12-02T09:17:37.518Z,1.90
2018-12-02T09:22:41.088Z,0.90
2018-12-02T09:27:45.013Z,1.95
2018-12-02T09:32:48.806Z,1.30
2018-12-02T09:37:53.264Z,0.47
2018-12-02T09:42:56.993Z,2.40
2018-12-02T09:48:01.267Z,3.70
2018-12-02T09:53:05.165Z,0.53
2018-12-02T09:58:12.012Z,1.93
2018-12-02T10:03:16.079Z,0.50
2018-12-02T10:08:19.982Z,1.00
2018-12-02T10:13:24.052Z,0.70
2018-12-02T10:18:27.639Z,1.63
2018-12-02T10:23:32.521Z,0.50
2018-12-02T10:28:37.360Z,0.87
2018-12-02T10:33:41.288Z,0.40
2018-12-02T10:38:45.816Z,0.50
2018-12-02T10:43:51.469Z,0.57
2018-12-02T10:48:55.749Z,0.37
2018-12-02T10:53:59.758Z,0.40
2018-12-02T10:59:04.222Z,1.13
2018-12-02T11:04:08.065Z,0.90
2018-12-02T11:09:13.300Z,0.70
2018-12-02T11:14:17.175Z,0.60
2018-12-02T11:19:22.231Z,0.50
2018-12-02T11:24:26.710Z,0.60
2018-12-02T11:29:31.288Z,4.13
2018-12-02T11:34:35.001Z,1.17
2018-12-02T11:39:38.926Z,2.07
2018-12-02T11:44:42.653Z,0.37
2018-12-02T11:49:46.823Z,0.50
2018-12-02T11:54:51.120Z,0.93
2018-12-02T11:59:54.953Z,0.82
2018-12-02T12:04:59.017Z,0.40
2018-12-02T12:10:02.747Z,0.43
2018-12-02T12:15:08.670Z,1.30
2018-12-02T12:20:14.665Z,0.43
2018-12-02T12:25:18.409Z,1.23
2018-12-02T12:30:27.385Z,0.30
2018-12-02T12:35:31.051Z,0.50
2018-12-02T12:40:36.409Z,0.30
2018-12-02T12:45:40.894Z,0.30
2018-12-02T12:50:44.933Z,2.00
2018-12-02T12:55:50.978Z,0.47
2018-12-02T13:00:52.965Z,0.40
2018-12-02T13:05:56.921Z,0.33
2018-12-02T13:11:00.555Z,0.30
2018-12-02T13:16:04.285Z,0.37
2018-12-02T13:21:07.978Z,1.80
2018-12-02T13:26:11.581Z,1.07
2018-12-02T13:31:15.106Z,0.40
2018-12-02T13:36:27.285Z,0.30
2018-12-02T13:41:31.180Z,0.50
2018-12-02T13:46:35.195Z,2.12
2018-12-02T13:51:38.990Z,0.30
2018-12-02T13:56:42.618Z,0.90
2018-12-02T14:01:46.678Z,0.50
2018-12-02T14:06:50.312Z,0.90
2018-12-02T14:11:54.382Z,3.10
2018-12-02T14:17:02.357Z,1.33
2018-12-02T14:22:06.781Z,0.50
2018-12-02T14:27:11.894Z,0.30
2018-12-02T14:32:17.252Z,0.57
2018-12-02T14:37:21.080Z,1.13
2018-12-02T14:42:24.645Z,1.50
2018-12-02T14:47:28.316Z,0.63
2018-12-02T14:52:32.113Z,0.87
2018-12-02T14:57:35.882Z,1.00
2018-12-02T15:02:39.905Z,0.40
2018-12-02T15:07:45.216Z,0.40
2018-12-02T15:12:49.383Z,0.30
2018-12-02T15:17:53.282Z,0.87
2018-12-02T15:22:57.867Z,0.80
2018-12-02T15:28:01.383Z,7.65
2018-12-02T15:33:06.663Z,1.27
2018-12-02T15:38:10.538Z,0.30
2018-12-02T15:43:14.375Z,0.40
2018-12-02T15:48:19.511Z,0.93
2018-12-02T15:53:24.604Z,0.50
2018-12-02T15:58:28.368Z,0.65
2018-12-02T16:03:31.938Z,1.30
2018-12-02T16:08:35.462Z,0.50
2018-12-02T16:13:39.003Z,0.60
2018-12-02T16:18:42.517Z,5.60
2018-12-02T16:23:46.011Z,0.90
2018-12-02T16:28:49.722Z,0.93
2018-12-02T16:33:53.419Z,0.50
2018-12-02T16:38:57.021Z,0.60
2018-12-02T16:44:00.784Z,1.42
2018-12-02T16:49:04.579Z,0.80
2018-12-02T16:54:08.093Z,0.40
2018-12-02T16:59:16.260Z,0.70
2018-12-02T17:04:20.360Z,1.47
2018-12-02T17:09:23.844Z,0.70
2018-12-02T17:14:27.379Z,5.23
2018-12-02T17:19:32.274Z,3.27
2018-12-02T17:24:35.933Z,6.00
2018-12-02T17:29:41.549Z,0.43
2018-12-02T17:34:44.128Z,2.40
2018-12-02T17:39:50.859Z,5.17
2018-12-02T17:44:54.936Z,7.37
2018-12-02T17:49:58.763Z,2.60
2018-12-02T17:55:03.363Z,1.90
2018-12-02T18:00:13.073Z,0.77
2018-12-02T18:05:18.808Z,5.43
2018-12-02T18:10:22.374Z,1.10
2018-12-02T18:15:26.316Z,4.63
2018-12-02T18:20:31.353Z,2.73
2018-12-02T18:25:36.356Z,3.17
2018-12-02T18:30:40.172Z,0.67
2018-12-02T18:36:16.867Z,0.93
2018-12-02T18:41:29.799Z,1.37
2018-12-02T18:46:34.267Z,2.50
2018-12-02T18:51:38.388Z,0.33
2018-12-02T18:56:42.998Z,3.77
2018-12-02T19:01:46.789Z,0.93
2018-12-02T19:06:50.491Z,0.30
2018-12-02T19:11:54.156Z,0.37
2018-12-02T19:16:57.965Z,1.20
2018-12-02T19:22:03.023Z,0.30
2018-12-02T19:27:07.068Z,6.23
2018-12-02T19:32:10.855Z,0.80
2018-12-02T19:37:14.751Z,0.70
2018-12-02T19:42:18.486Z,1.40
2018-12-02T19:47:22.521Z,0.40
2018-12-02T19:52:26.180Z,0.30
2018-12-02T19:57:31.041Z,0.88
2018-12-02T20:02:35.832Z,2.70
2018-12-02T20:07:39.821Z,6.33
2018-12-02T20:12:43.650Z,0.50
2018-12-02T20:17:47.258Z,4.13
2018-12-02T20:22:53.753Z,0.20
2018-12-02T20:27:59.816Z,0.43
2018-12-02T20:33:03.494Z,0.40
2018-12-02T20:38:07.802Z,1.60
2018-12-02T20:43:11.451Z,2.67
2018-12-02T20:48:15.101Z,0.87
2018-12-02T20:53:19.148Z,1.60
2018-12-02T20:58:22.923Z,0.70
2018-12-02T21:03:29.673Z,0.70
2018-12-02T21:08:33.383Z,0.23
2018-12-02T21:13:37.245Z,1.23
2018-12-02T21:18:41.055Z,0.33
2018-12-02T21:23:47.207Z,0.40
2018-12-02T21:28:53.481Z,1.80
2018-12-02T21:33:59.368Z,0.60
2018-12-02T21:39:02.712Z,0.40
2018-12-02T21:44:09.972Z,1.67
2018-12-02T21:49:14.057Z,2.50
2018-12-02T21:54:17.769Z,0.27
2018-12-02T22:00:09.482Z,0.30
2018-12-02T22:05:13.561Z,0.30
2018-12-02T22:10:19.565Z,0.47
2018-12-02T22:15:23.133Z,0.30
2018-12-02T22:20:26.742Z,0.67
2018-12-02T22:25:32.086Z,0.20
2018-12-02T22:30:35.665Z,0.30
2018-12-02T22:35:39.349Z,0.85
2018-12-02T22:40:42.852Z,0.20
2018-12-02T22:45:46.459Z,0.30
2018-12-02T22:50:50.037Z,0.30
2018-12-02T22:55:55.620Z,0.40
2018-12-02T23:01:04.817Z,0.53
2018-12-02T23:06:09.184Z,0.37
2018-12-02T23:11:12.731Z,0.30
2018-12-02T23:16:16.265Z,0.20
2018-12-02T23:21:19.997Z,0.30
2018-12-02T23:26:23.570Z,0.27
2018-12-02T23:31:27.237Z,1.30
2018-12-02T23:36:30.989Z,0.20
2018-12-02T23:41:36.338Z,0.20
2018-12-02T23:46:40.028Z,0.87
2018-12-02T23:51:44.065Z,0.20
2018-12-02T23:56:48.357Z,0.60
